Terminal Aerodrome Forecast
Issued by NWS

Home | Current Version | Previous Version | Text Only | Print | Product List | Glossary On
Versions: 1 2 3 4 5 6 7 8 9 10 11 12 13 14 15 16 17 18 19 20 21 22 23 24 25 26 27 28
000
FTUS46 KLOX 191100
TAFLAX
TAF
KLAX 191123Z 1912/2018 25007KT P6SM SCT008
     FM191400 VRB03KT 6SM BR OVC008
     FM191600 VRB03KT 6SM BR OVC012
     FM191800 25006KT 6SM HZ SCT012
     FM192000 25012KT P6SM SCT250
     FM200500 VRB03KT P6SM BKN012
     FM200800 VRB03KT 6SM BR OVC012
     FM201700 VRB03KT P6SM BKN015=

USA.gov is the U.S. government's official web portal to all federal, state and local government web resources and services.